Аэропорт
Волгоград (URWW)

 URWW / VOG
ЗЦ Ростов-на-Дону
Ростов-на-Дону (URRV)
Ростов-на-Дону (URRV)
 48.78250, 44.34550  / 482 ft

 URWW 191030Z VRB01MPS CAVOK 07/M01 Q1028 R06/010070 NOSIG
 URWW 182258Z 1900/1909 05003G08MPS 0300 FZFG OVC002 TEMPO 1900/1909 02003G08MPS 3100 BR OVC005
показать схемы

Аэропорт Волгограда — Гумрак

Международный аэропорт Волгоград расположен на северо-западе Дзержинского района (посёлок Аэропорт), в 21 км от центра Волгограда — административного центра Волгоградской области.

По техническим характеристикам аэродром Волгоград (Гумрак) соответствует сертифицированным требованиям норм готовности к эксплуатации гражданских аэродромов по II категории ИКАО.

Взлетно-посадочная полоса имеет длину 3280 м и ширину 45 м. Выполнена из асфальтобетона.
Принимает ВС типа: Ан-2,12,24,26,140,148; ЯК-40,42; Ил-18,76,114; Ту-134,154,204 и его модификации; RRJ-95В и его модификации; А-319, 320, 321 и их модификации; Б-737,757 и их модификации; Б-767-200(200ER); Б-767-300(300ER); SAAB-2000; SSJ-100; CRJ-100/200; ATR-42,72 типы ВС III и IV классов, вертолеты всех типов.

Сведения о ВПП и навигационном оборудовании: 

ВПП МПУ Превышение Размер Покрытие ИЛС ОПРС Круг
06 055 124.0 2800×45 Железобетон 111,7 876 Левый 600 метров
24 235 145.0 2800×45 Железобетон 110,5 876 Правый 600 метров


2019 © VATRUS division (Privacy Policy)